createdAt,value
2022-12-13T00:00:30.448Z,8.03
2022-12-13T00:02:57.080Z,3.27
2022-12-13T00:05:23.612Z,1.77
2022-12-13T00:07:50.157Z,3.30
2022-12-13T00:10:16.842Z,1.97
2022-12-13T00:12:43.410Z,1.73
2022-12-13T00:15:10.193Z,1.20
2022-12-13T00:17:36.811Z,3.67
2022-12-13T00:20:04.470Z,3.57
2022-12-13T00:22:31.017Z,2.37
2022-12-13T00:24:57.581Z,2.10
2022-12-13T00:27:24.644Z,2.60
2022-12-13T00:29:51.344Z,1.67
2022-12-13T00:32:17.963Z,3.30
2022-12-13T00:34:44.910Z,3.43
2022-12-13T00:37:11.464Z,4.83
2022-12-13T00:39:38.657Z,2.33
2022-12-13T00:42:05.474Z,1.90
2022-12-13T00:44:32.119Z,1.23
2022-12-13T00:46:58.679Z,3.37
2022-12-13T00:49:25.677Z,2.20
2022-12-13T00:51:52.294Z,2.43
2022-12-13T00:54:18.878Z,1.93
2022-12-13T00:56:45.406Z,2.53
2022-12-13T00:59:13.230Z,3.17
2022-12-13T01:01:40.300Z,1.93
2022-12-13T01:04:06.870Z,1.93
2022-12-13T01:06:36.183Z,3.17
2022-12-13T01:09:03.534Z,3.00
2022-12-13T01:11:30.041Z,4.30
2022-12-13T01:13:56.591Z,1.70
2022-12-13T01:16:23.281Z,1.97
2022-12-13T01:18:50.212Z,1.40
2022-12-13T01:21:17.695Z,2.07
2022-12-13T01:23:44.505Z,2.50
2022-12-13T01:26:12.182Z,3.13
2022-12-13T01:28:38.898Z,2.50
2022-12-13T01:31:11.501Z,2.47
2022-12-13T01:33:38.352Z,2.97
2022-12-13T01:36:05.722Z,1.93
2022-12-13T01:38:32.439Z,2.50
2022-12-13T01:41:16.912Z,2.57
2022-12-13T01:43:44.830Z,6.07
2022-12-13T01:46:11.647Z,3.47
2022-12-13T01:48:39.859Z,2.53
2022-12-13T01:51:06.756Z,2.87
2022-12-13T01:53:33.983Z,3.27
2022-12-13T01:56:11.029Z,2.23
2022-12-13T01:58:37.617Z,2.47
2022-12-13T02:01:04.281Z,1.90
2022-12-13T02:03:30.931Z,3.90
2022-12-13T02:06:00.485Z,1.63
2022-12-13T02:08:27.423Z,1.80
2022-12-13T02:10:53.998Z,1.77
2022-12-13T02:13:20.532Z,3.30
2022-12-13T02:16:04.964Z,2.67
2022-12-13T02:18:44.528Z,3.43
2022-12-13T02:21:16.750Z,4.60
2022-12-13T02:24:08.965Z,2.83
2022-12-13T02:26:41.906Z,1.67
2022-12-13T02:29:30.523Z,2.07
2022-12-13T02:32:03.873Z,2.03
2022-12-13T02:34:34.683Z,6.73
2022-12-13T02:37:02.269Z,2.37
2022-12-13T02:39:31.013Z,1.80
2022-12-13T02:41:59.824Z,3.20
2022-12-13T02:44:27.273Z,1.50
2022-12-13T02:46:55.395Z,2.03
2022-12-13T02:49:21.978Z,1.60
2022-12-13T02:51:48.520Z,2.10
2022-12-13T02:54:14.987Z,2.83
2022-12-13T02:56:41.757Z,2.40
2022-12-13T02:59:10.342Z,2.00
2022-12-13T03:01:39.959Z,2.80
2022-12-13T03:04:12.021Z,1.73
2022-12-13T03:06:57.356Z,1.87
2022-12-13T03:09:30.193Z,2.37
2022-12-13T03:12:37.401Z,1.47
2022-12-13T03:15:11.856Z,2.57
2022-12-13T03:17:41.352Z,1.90
2022-12-13T03:20:22.461Z,2.73
2022-12-13T03:22:50.983Z,3.43
2022-12-13T03:25:31.341Z,2.10
2022-12-13T03:28:01.539Z,1.40
2022-12-13T03:30:28.897Z,3.27
2022-12-13T03:32:55.389Z,3.57
2022-12-13T03:35:22.819Z,2.40
2022-12-13T03:37:49.715Z,2.10
2022-12-13T03:40:16.743Z,1.60
2022-12-13T03:42:43.269Z,2.27
2022-12-13T03:45:09.944Z,2.40
2022-12-13T03:47:36.637Z,2.33
2022-12-13T03:50:07.591Z,1.93
2022-12-13T03:52:51.925Z,4.23
2022-12-13T03:55:18.844Z,2.83
2022-12-13T03:57:45.403Z,2.43
2022-12-13T04:00:12.270Z,2.23
2022-12-13T04:02:38.933Z,3.63
2022-12-13T04:05:05.799Z,1.77
2022-12-13T04:07:34.386Z,2.57
2022-12-13T04:10:01.459Z,4.77
2022-12-13T04:12:48.453Z,2.33
2022-12-13T04:15:15.653Z,2.83
2022-12-13T04:17:42.479Z,1.93
2022-12-13T04:20:09.477Z,1.23
2022-12-13T04:22:36.064Z,3.30
2022-12-13T04:25:03.090Z,3.93
2022-12-13T04:27:29.925Z,3.03
2022-12-13T04:29:57.021Z,5.30
2022-12-13T04:32:26.087Z,3.33
2022-12-13T04:35:00.913Z,3.50
2022-12-13T04:37:28.546Z,1.50
2022-12-13T04:40:00.723Z,3.30
2022-12-13T04:42:27.869Z,6.97
2022-12-13T04:44:54.551Z,4.43
2022-12-13T04:47:21.421Z,4.00
2022-12-13T04:49:48.065Z,5.23
2022-12-13T04:52:22.503Z,5.57
2022-12-13T04:54:55.346Z,3.93
2022-12-13T04:57:23.732Z,4.40
2022-12-13T04:59:51.519Z,3.73
2022-12-13T05:02:23.839Z,3.50
2022-12-13T05:04:54.366Z,3.03
2022-12-13T05:07:23.239Z,3.87
2022-12-13T05:09:49.769Z,4.10
2022-12-13T05:12:22.664Z,5.33
2022-12-13T05:14:50.744Z,4.27
2022-12-13T05:17:17.262Z,4.80
2022-12-13T05:19:43.917Z,2.17
2022-12-13T05:22:19.916Z,2.53
2022-12-13T05:24:47.271Z,4.80
2022-12-13T05:27:24.426Z,4.57
2022-12-13T05:30:03.758Z,3.47
2022-12-13T05:32:43.793Z,4.37
2022-12-13T05:35:12.444Z,3.53
2022-12-13T05:37:39.374Z,4.10
2022-12-13T05:40:06.626Z,2.93
2022-12-13T05:42:36.186Z,6.73
2022-12-13T05:45:06.314Z,8.53
2022-12-13T05:47:32.960Z,4.00
2022-12-13T05:49:59.527Z,3.60
2022-12-13T05:52:30.610Z,3.97
2022-12-13T05:55:01.019Z,3.03
2022-12-13T05:57:27.898Z,3.87
2022-12-13T05:59:54.515Z,2.70
2022-12-13T06:02:22.137Z,5.13
2022-12-13T06:04:49.428Z,4.90
2022-12-13T06:07:15.978Z,5.87
2022-12-13T06:09:42.769Z,2.43
2022-12-13T06:12:31.920Z,6.57
2022-12-13T06:15:00.818Z,1.93
2022-12-13T06:17:32.000Z,4.63
2022-12-13T06:19:58.802Z,3.60
2022-12-13T06:22:25.520Z,4.27
2022-12-13T06:24:52.990Z,3.37
2022-12-13T06:27:21.318Z,6.23
2022-12-13T06:29:48.284Z,7.87
2022-12-13T06:32:15.092Z,3.40
2022-12-13T06:34:41.660Z,3.63
2022-12-13T06:37:08.849Z,1.80
2022-12-13T06:39:36.299Z,6.80
2022-12-13T06:42:03.404Z,3.80
2022-12-13T06:44:30.033Z,3.17
2022-12-13T06:47:10.247Z,3.70
2022-12-13T06:49:37.782Z,5.53
2022-12-13T06:52:04.329Z,2.73
2022-12-13T06:54:30.893Z,5.00
2022-12-13T06:56:57.474Z,4.83
2022-12-13T06:59:24.618Z,6.70
2022-12-13T07:01:51.244Z,5.70
2022-12-13T07:04:29.728Z,5.37
2022-12-13T07:07:01.254Z,7.13
2022-12-13T07:09:29.921Z,4.40
2022-12-13T07:11:56.493Z,6.33
2022-12-13T07:14:23.121Z,7.60
2022-12-13T07:16:49.713Z,5.77
2022-12-13T07:19:23.803Z,5.90
2022-12-13T07:21:51.542Z,5.97
2022-12-13T07:24:18.160Z,5.10
2022-12-13T07:26:44.739Z,6.17
2022-12-13T07:29:12.594Z,7.63
2022-12-13T07:31:48.853Z,4.93
2022-12-13T07:34:15.860Z,5.03
2022-12-13T07:36:42.600Z,3.40
2022-12-13T07:39:10.529Z,5.27
2022-12-13T07:41:37.413Z,2.53
2022-12-13T07:44:04.988Z,6.00
2022-12-13T07:46:33.216Z,5.27
2022-12-13T07:49:03.324Z,3.20
2022-12-13T07:51:30.067Z,5.17
2022-12-13T07:53:57.414Z,2.90
2022-12-13T07:56:23.983Z,2.17
2022-12-13T07:58:51.120Z,4.03
2022-12-13T08:01:18.670Z,4.67
2022-12-13T08:03:48.143Z,1.93
2022-12-13T08:06:15.188Z,3.10
2022-12-13T08:08:42.039Z,2.93
2022-12-13T08:13:56.153Z,5.17
2022-12-13T08:16:26.258Z,2.60
2022-12-13T08:19:01.063Z,5.33
2022-12-13T08:21:53.247Z,3.83
2022-12-13T08:24:16.829Z,5.43
2022-12-13T08:26:43.367Z,8.53
2022-12-13T08:29:10.070Z,5.40
2022-12-13T08:31:36.698Z,6.00
2022-12-13T08:34:03.391Z,1.63
2022-12-13T08:36:30.051Z,4.63
2022-12-13T08:38:58.064Z,5.43
2022-12-13T08:41:24.796Z,5.13
2022-12-13T08:43:51.501Z,1.30
2022-12-13T08:46:18.144Z,2.00
2022-12-13T08:48:45.245Z,5.37
2022-12-13T08:51:13.389Z,6.83
2022-12-13T08:53:41.002Z,6.67
2022-12-13T08:56:10.933Z,6.00
2022-12-13T08:58:38.145Z,3.93
2022-12-13T09:01:08.111Z,6.43
2022-12-13T09:03:35.060Z,5.13
2022-12-13T09:06:14.592Z,4.60
2022-12-13T09:08:41.663Z,5.67
2022-12-13T09:11:11.554Z,4.33
2022-12-13T09:13:49.345Z,2.83
2022-12-13T09:16:23.306Z,5.80
2022-12-13T09:18:54.877Z,8.90
2022-12-13T09:21:22.457Z,6.50
2022-12-13T09:24:01.768Z,3.67
2022-12-13T09:26:28.715Z,4.90
2022-12-13T09:28:55.336Z,6.90
2022-12-13T09:34:06.327Z,5.30
2022-12-13T09:36:33.400Z,4.80
2022-12-13T09:39:00.218Z,5.23
2022-12-13T09:41:31.254Z,4.63
2022-12-13T09:44:00.946Z,4.90
2022-12-13T09:46:34.460Z,8.27
2022-12-13T09:49:13.352Z,6.87
2022-12-13T09:51:45.014Z,7.57
2022-12-13T09:54:17.044Z,4.17
2022-12-13T09:56:43.609Z,5.83
2022-12-13T09:59:13.287Z,5.30
2022-12-13T10:01:40.359Z,4.60
2022-12-13T10:04:08.146Z,4.80
2022-12-13T10:06:35.619Z,9.33
2022-12-13T10:09:02.198Z,5.90
2022-12-13T10:11:32.012Z,7.33
2022-12-13T10:14:02.699Z,4.03
2022-12-13T10:16:43.804Z,5.43
2022-12-13T10:19:30.249Z,7.50
2022-12-13T10:22:01.937Z,7.77
2022-12-13T10:24:47.618Z,8.77
2022-12-13T10:27:15.256Z,7.63
2022-12-13T10:30:01.129Z,7.87
2022-12-13T10:32:27.921Z,6.50
2022-12-13T10:34:57.133Z,10.07
2022-12-13T10:37:24.437Z,5.90
2022-12-13T10:39:51.029Z,7.53
2022-12-13T10:42:22.911Z,5.70
2022-12-13T10:44:54.422Z,5.30
2022-12-13T10:47:22.392Z,4.77
2022-12-13T10:49:50.509Z,6.13
2022-12-13T10:52:33.422Z,5.90
2022-12-13T10:55:02.482Z,6.60
2022-12-13T10:57:29.014Z,4.43
2022-12-13T10:59:55.747Z,8.27
2022-12-13T11:02:28.274Z,9.37
2022-12-13T11:04:55.037Z,4.03
2022-12-13T11:07:28.658Z,5.70
2022-12-13T11:09:55.661Z,6.37
2022-12-13T11:12:31.787Z,3.33
2022-12-13T11:15:01.894Z,4.57
2022-12-13T11:17:29.425Z,7.00
2022-12-13T11:19:56.487Z,10.20
2022-12-13T11:22:27.190Z,6.13
2022-12-13T11:24:56.563Z,4.77
2022-12-13T11:27:23.918Z,5.60
2022-12-13T11:30:08.835Z,8.27
2022-12-13T11:32:35.408Z,6.63
2022-12-13T11:35:20.692Z,10.57
2022-12-13T11:38:05.882Z,8.37
2022-12-13T11:40:32.627Z,5.33
2022-12-13T11:43:01.695Z,4.70
2022-12-13T11:45:29.753Z,7.93
2022-12-13T11:48:02.895Z,7.00
2022-12-13T11:50:33.164Z,7.80
2022-12-13T11:53:04.517Z,8.17
2022-12-13T11:55:34.343Z,7.30
2022-12-13T11:58:07.269Z,4.03
2022-12-13T12:00:35.312Z,6.60
2022-12-13T12:03:24.833Z,8.70
2022-12-13T12:05:55.977Z,6.63
2022-12-13T12:08:39.796Z,6.77
2022-12-13T12:11:09.394Z,6.60
2022-12-13T12:13:51.367Z,6.37
2022-12-13T12:16:34.050Z,8.63
2022-12-13T12:19:01.230Z,7.63
2022-12-13T12:21:42.739Z,7.87
2022-12-13T12:24:30.565Z,6.17
2022-12-13T12:26:57.201Z,7.13
2022-12-13T12:32:16.307Z,4.83
2022-12-13T12:34:42.903Z,5.93
2022-12-13T12:37:09.568Z,7.03
2022-12-13T12:39:43.705Z,4.60
2022-12-13T12:42:19.735Z,5.77
2022-12-13T12:44:46.422Z,7.27
2022-12-13T12:47:49.032Z,4.57
2022-12-13T12:50:17.250Z,5.07
2022-12-13T12:52:47.841Z,7.00
2022-12-13T12:55:26.698Z,9.87
2022-12-13T12:57:56.076Z,6.77
2022-12-13T13:00:25.328Z,5.40
2022-12-13T13:02:51.943Z,5.23
2022-12-13T13:05:21.110Z,4.47
2022-12-13T13:07:51.479Z,9.43
2022-12-13T13:10:26.735Z,5.07
2022-12-13T13:13:12.929Z,4.43
2022-12-13T13:15:39.975Z,9.07
2022-12-13T13:18:07.504Z,8.10
2022-12-13T13:20:34.078Z,3.43
2022-12-13T13:26:15.909Z,8.37
2022-12-13T13:28:40.484Z,7.50
2022-12-13T13:31:08.992Z,7.40
2022-12-13T13:33:42.342Z,7.27
2022-12-13T13:36:09.265Z,8.23
2022-12-13T13:38:49.317Z,4.53
2022-12-13T13:41:38.015Z,11.50
2022-12-13T13:44:24.522Z,11.37
2022-12-13T13:47:14.207Z,9.53
2022-12-13T13:49:47.409Z,7.50
2022-12-13T13:52:25.396Z,7.90
2022-12-13T13:54:58.801Z,10.73
2022-12-13T13:58:08.380Z,11.03
2022-12-13T14:00:23.948Z,18.80
2022-12-13T14:02:53.897Z,17.57
2022-12-13T14:05:40.507Z,12.70
2022-12-13T14:08:20.173Z,11.30
2022-12-13T14:10:51.995Z,9.60
2022-12-13T14:13:45.123Z,7.40
2022-12-13T14:16:21.269Z,5.83
2022-12-13T14:18:48.074Z,6.47
2022-12-13T14:21:14.957Z,5.27
2022-12-13T14:23:41.642Z,5.63
2022-12-13T14:26:11.190Z,8.30
2022-12-13T14:28:48.050Z,8.00
2022-12-13T14:31:20.098Z,4.53
2022-12-13T14:33:48.650Z,8.67
2022-12-13T14:36:16.198Z,7.23
2022-12-13T14:38:42.833Z,6.37
2022-12-13T14:41:21.635Z,4.73
2022-12-13T14:43:50.220Z,7.80
2022-12-13T14:46:17.012Z,5.97
2022-12-13T14:48:50.384Z,4.73
2022-12-13T14:51:23.166Z,5.17
2022-12-13T14:53:50.500Z,5.33
2022-12-13T14:56:28.034Z,10.03
2022-12-13T14:58:59.212Z,6.70
2022-12-13T15:01:32.910Z,9.47
2022-12-13T15:04:18.452Z,4.47
2022-12-13T15:06:48.235Z,4.10
2022-12-13T15:09:15.217Z,4.30
2022-12-13T15:11:42.160Z,3.40
2022-12-13T15:14:13.980Z,6.03
2022-12-13T15:16:40.610Z,8.83
2022-12-13T15:19:14.462Z,7.57
2022-12-13T15:22:02.635Z,8.80
2022-12-13T15:24:33.624Z,9.63
2022-12-13T15:27:16.787Z,8.77
2022-12-13T15:29:46.300Z,5.40
2022-12-13T15:32:19.033Z,12.07
2022-12-13T15:34:49.298Z,11.00
2022-12-13T15:37:28.863Z,8.87
2022-12-13T15:40:00.865Z,10.13
2022-12-13T15:42:27.392Z,12.70
2022-12-13T15:44:54.687Z,8.30
2022-12-13T15:47:28.654Z,13.93
2022-12-13T15:49:59.603Z,9.73
2022-12-13T15:55:19.850Z,12.53
2022-12-13T16:00:34.766Z,18.70
2022-12-13T16:03:17.847Z,14.90
2022-12-13T16:05:49.397Z,10.37
2022-12-13T16:08:26.953Z,12.47
2022-12-13T16:10:53.726Z,16.33
2022-12-13T16:13:31.538Z,9.93
2022-12-13T16:16:09.522Z,11.13
2022-12-13T16:18:46.439Z,11.20
2022-12-13T16:21:14.515Z,8.73
2022-12-13T16:23:41.323Z,9.40
2022-12-13T16:26:16.888Z,9.30
2022-12-13T16:28:43.466Z,10.43
2022-12-13T16:31:23.328Z,6.03
2022-12-13T16:33:50.219Z,12.27
2022-12-13T16:36:16.979Z,8.37
2022-12-13T16:38:44.259Z,11.00
2022-12-13T16:41:10.919Z,11.57
2022-12-13T16:43:40.446Z,12.17
2022-12-13T16:47:10.161Z,12.10
2022-12-13T16:48:54.237Z,11.13
2022-12-13T16:51:21.153Z,8.50
2022-12-13T16:53:47.912Z,10.57
2022-12-13T16:56:16.534Z,14.60
2022-12-13T16:58:49.598Z,8.23
2022-12-13T17:01:18.204Z,12.27
2022-12-13T17:03:44.815Z,11.77
2022-12-13T17:06:11.567Z,15.30
2022-12-13T17:08:38.306Z,12.57
2022-12-13T17:11:13.321Z,13.83
2022-12-13T17:13:45.022Z,17.07
2022-12-13T17:16:11.731Z,20.60
2022-12-13T17:18:40.923Z,17.00
2022-12-13T17:21:08.416Z,12.57
2022-12-13T17:23:35.043Z,15.17
2022-12-13T17:26:08.162Z,12.00
2022-12-13T17:28:34.813Z,11.47
2022-12-13T17:31:08.134Z,13.93
2022-12-13T17:33:34.878Z,13.07
2022-12-13T17:36:03.544Z,11.67
2022-12-13T17:38:30.260Z,13.00
2022-12-13T17:40:56.987Z,14.17
2022-12-13T17:43:33.730Z,8.90
2022-12-13T17:46:01.914Z,10.70
2022-12-13T17:48:35.586Z,9.07
2022-12-13T17:51:07.479Z,10.80
2022-12-13T17:53:34.240Z,13.47
2022-12-13T17:56:02.139Z,13.67
2022-12-13T17:58:29.347Z,10.43
2022-12-13T18:00:56.437Z,10.93
2022-12-13T18:03:23.999Z,12.90
2022-12-13T18:06:00.113Z,9.07
2022-12-13T18:08:26.914Z,11.53
2022-12-13T18:11:30.833Z,13.53
2022-12-13T18:13:44.107Z,18.13
2022-12-13T18:16:11.456Z,11.83
2022-12-13T18:18:38.050Z,13.73
2022-12-13T18:23:55.316Z,16.00
2022-12-13T18:26:22.872Z,16.20
2022-12-13T18:28:49.584Z,17.63
2022-12-13T18:31:18.633Z,14.97
2022-12-13T18:33:47.812Z,15.33
2022-12-13T18:36:20.232Z,18.83
2022-12-13T18:39:03.035Z,13.00
2022-12-13T18:41:54.982Z,14.00
2022-12-13T18:44:23.872Z,16.90
2022-12-13T18:46:52.247Z,13.23
2022-12-13T18:49:19.037Z,14.63
2022-12-13T18:51:46.136Z,15.67
2022-12-13T18:54:14.630Z,15.80
2022-12-13T18:56:41.845Z,13.87
2022-12-13T18:59:08.715Z,14.00
2022-12-13T19:01:36.588Z,13.83
2022-12-13T19:04:03.649Z,15.13
2022-12-13T19:06:30.937Z,15.23
2022-12-13T19:08:57.891Z,15.03
2022-12-13T19:11:26.012Z,14.13
2022-12-13T19:13:57.329Z,17.47
2022-12-13T19:16:27.081Z,6.43
2022-12-13T19:18:59.294Z,7.93
2022-12-13T19:21:27.484Z,13.60
2022-12-13T19:23:58.820Z,11.33
2022-12-13T19:26:29.087Z,12.27
2022-12-13T19:28:58.961Z,10.50
2022-12-13T19:31:32.566Z,13.03
2022-12-13T19:34:00.273Z,16.63
2022-12-13T19:36:26.980Z,14.33
2022-12-13T19:38:56.336Z,11.57
2022-12-13T19:41:24.388Z,15.23
2022-12-13T19:46:39.938Z,15.27
2022-12-13T19:49:07.535Z,16.77
2022-12-13T19:51:39.221Z,14.80
2022-12-13T19:54:07.139Z,19.87
2022-12-13T19:56:33.876Z,13.83
2022-12-13T19:59:01.912Z,13.80
2022-12-13T20:01:28.633Z,17.13
2022-12-13T20:03:56.581Z,14.63
2022-12-13T20:06:27.328Z,16.63
2022-12-13T20:08:54.582Z,14.80
2022-12-13T20:11:23.416Z,13.23
2022-12-13T20:13:50.752Z,13.03
2022-12-13T20:16:18.004Z,16.07
2022-12-13T20:18:44.763Z,7.27
2022-12-13T20:21:13.523Z,12.23
2022-12-13T20:23:49.337Z,8.23
2022-12-13T20:26:20.389Z,14.00
2022-12-13T20:28:47.599Z,4.50
2022-12-13T20:31:18.600Z,7.63
2022-12-13T20:33:47.083Z,11.20
2022-12-13T20:36:24.642Z,12.17
2022-12-13T20:38:55.255Z,7.07
2022-12-13T20:41:22.763Z,9.77
2022-12-13T20:43:58.299Z,11.07
2022-12-13T20:46:25.381Z,11.17
2022-12-13T20:48:53.706Z,9.50
2022-12-13T20:51:21.181Z,17.03
2022-12-13T20:53:48.241Z,15.83
2022-12-13T20:56:15.623Z,16.63
2022-12-13T20:58:42.223Z,13.53
2022-12-13T21:01:09.424Z,22.47
2022-12-13T21:03:36.060Z,23.33
2022-12-13T21:06:02.744Z,16.07
2022-12-13T21:08:51.712Z,19.10
2022-12-13T21:11:25.969Z,18.27
2022-12-13T21:13:53.554Z,17.90
2022-12-13T21:16:22.593Z,16.23
2022-12-13T21:18:53.351Z,11.57
2022-12-13T21:21:22.941Z,12.63
2022-12-13T21:23:52.110Z,10.43
2022-12-13T21:26:18.778Z,11.80
2022-12-13T21:28:46.484Z,16.63
2022-12-13T21:31:13.457Z,14.50
2022-12-13T21:33:40.162Z,13.00
2022-12-13T21:36:10.562Z,12.10
2022-12-13T21:38:37.220Z,8.63
2022-12-13T21:41:04.921Z,11.93
2022-12-13T21:43:38.277Z,9.40
2022-12-13T21:46:12.207Z,10.23
2022-12-13T21:48:39.640Z,11.80
2022-12-13T21:51:07.579Z,8.67
2022-12-13T21:53:34.809Z,7.90
2022-12-13T21:59:18.252Z,9.40
2022-12-13T22:02:05.307Z,13.13
2022-12-13T22:04:32.447Z,13.20
2022-12-13T22:06:59.152Z,8.23
2022-12-13T22:09:26.727Z,8.67
2022-12-13T22:11:53.277Z,11.63
2022-12-13T22:14:19.931Z,10.03
2022-12-13T22:16:46.565Z,12.83
2022-12-13T22:19:13.677Z,13.83
2022-12-13T22:21:40.360Z,10.30
2022-12-13T22:24:07.529Z,6.27
2022-12-13T22:26:34.270Z,9.80
2022-12-13T22:29:00.931Z,7.67
2022-12-13T22:31:29.983Z,6.90
2022-12-13T22:34:00.508Z,6.67
2022-12-13T22:36:27.777Z,9.57
2022-12-13T22:38:55.207Z,9.77
2022-12-13T22:41:22.101Z,7.03
2022-12-13T22:43:49.028Z,8.00
2022-12-13T22:46:17.271Z,8.33
2022-12-13T22:48:44.529Z,10.10
2022-12-13T22:51:12.126Z,5.70
2022-12-13T22:56:24.056Z,7.00
2022-12-13T22:58:54.501Z,7.43
2022-12-13T23:01:22.494Z,7.33
2022-12-13T23:03:49.295Z,7.03
2022-12-13T23:06:20.695Z,4.90
2022-12-13T23:08:50.133Z,5.33
2022-12-13T23:11:35.368Z,7.23
2022-12-13T23:14:02.298Z,8.73
2022-12-13T23:16:30.931Z,9.37
2022-12-13T23:19:10.935Z,11.17
2022-12-13T23:21:43.881Z,8.97
2022-12-13T23:26:59.144Z,8.23
2022-12-13T23:29:26.598Z,7.60
2022-12-13T23:31:53.311Z,9.20
2022-12-13T23:34:19.946Z,7.40
2022-12-13T23:36:47.000Z,6.90
2022-12-13T23:39:13.523Z,7.90
2022-12-13T23:41:40.128Z,8.67
2022-12-13T23:44:08.208Z,10.13
2022-12-13T23:46:35.432Z,10.43
2022-12-13T23:49:02.373Z,9.27
2022-12-13T23:51:29.638Z,11.63
2022-12-13T23:53:56.168Z,12.07
2022-12-13T23:56:22.825Z,12.40
2022-12-13T23:58:49.550Z,9.53
